Time;durP1;ratioP1;P1;durP2;ratioP2;P2;SDS_P1;SDS_P2;PMS_P1;PMS_P2;Temp;Humidity;BMP_temperature;BMP_pressure;BME280_temperature;BME280_humidity;BME280_pressure;Samples;Min_cycle;Max_cycle;Signal;HPM_P1;HPM_P2
2021/09/06 00:00:13;;;;;;;10.20;5.47;;;10.50;99.90;;;;;;20985843;28;20086;-53
2021/09/06 00:10:35;;;;;;;9.02;5.80;;;10.40;99.90;;;;;;20986453;28;20036;-56
2021/09/06 00:20:38;;;;;;;10.00;5.75;;;10.30;99.90;;;;;;20990224;28;20029;-56
2021/09/06 00:30:41;;;;;;;11.75;7.05;;;10.30;99.90;;;;;;20999664;28;20044;-52
2021/09/06 00:40:44;;;;;;;12.35;7.05;;;10.40;99.90;;;;;;20999833;28;20482;-51
2021/09/06 00:50:47;;;;;;;9.75;6.75;;;10.30;99.90;;;;;;20999352;28;20040;-56
2021/09/06 01:00:49;;;;;;;12.93;9.30;;;10.40;99.90;;;;;;20998564;28;20547;-56
2021/09/06 01:10:53;;;;;;;12.25;7.25;;;10.30;99.90;;;;;;20996791;28;20066;-53
2021/09/06 01:21:09;;;;;;;13.02;7.90;;;10.40;99.90;;;;;;20995986;28;20074;-56
2021/09/06 01:31:35;;;;;;;13.00;7.32;;;10.40;99.90;;;;;;20996566;28;20047;-51
2021/09/06 01:41:37;;;;;;;12.25;8.90;;;10.40;99.90;;;;;;20997760;28;20379;-54
2021/09/06 01:51:41;;;;;;;11.48;9.00;;;10.20;99.90;;;;;;20994354;28;20048;-55
2021/09/06 02:01:43;;;;;;;11.52;6.70;;;10.30;99.90;;;;;;20996427;28;20109;-55
2021/09/06 02:11:47;;;;;;;14.65;8.40;;;10.40;99.90;;;;;;20977086;28;20101;-55
2021/09/06 02:21:49;;;;;;;13.13;8.52;;;10.20;99.90;;;;;;20993405;28;20053;-54
2021/09/06 02:31:52;;;;;;;14.30;8.85;;;10.10;99.90;;;;;;20993950;28;20028;-56
2021/09/06 02:42:07;;;;;;;13.10;8.15;;;10.10;99.90;;;;;;20989312;28;20048;-55
2021/09/06 02:52:11;;;;;;;13.23;8.35;;;10.10;99.90;;;;;;20991869;28;20036;-57
2021/09/06 03:02:13;;;;;;;14.10;9.55;;;10.00;99.90;;;;;;20991182;28;20037;-52
2021/09/06 03:12:15;;;;;;;16.55;9.88;;;9.90;99.90;;;;;;20990371;28;20044;-52
2021/09/06 03:22:20;;;;;;;14.50;9.32;;;10.00;99.90;;;;;;20987899;28;20033;-53
2021/09/06 03:32:23;;;;;;;14.68;9.73;;;10.00;99.90;;;;;;20988432;28;20432;-54
2021/09/06 03:42:26;;;;;;;19.08;9.10;;;10.00;99.90;;;;;;20986975;28;20075;-51
2021/09/06 03:52:28;;;;;;;19.17;13.40;;;10.00;99.90;;;;;;20986979;28;20033;-52
2021/09/06 04:02:30;;;;;;;16.17;10.25;;;9.90;99.90;;;;;;21002422;28;20106;-53
2021/09/06 04:12:32;;;;;;;17.25;10.10;;;10.00;99.90;;;;;;21001047;28;20039;-55
2021/09/06 04:22:37;;;;;;;15.70;9.35;;;9.90;99.90;;;;;;21000591;28;20036;-53
2021/09/06 04:32:39;;;;;;;17.00;10.23;;;9.80;99.90;;;;;;20999860;28;20042;-56
2021/09/06 04:42:41;;;;;;;14.88;9.38;;;9.80;99.90;;;;;;20998063;28;20047;-55
2021/09/06 04:52:44;;;;;;;16.80;9.98;;;9.80;99.90;;;;;;20998257;28;20332;-53
2021/09/06 05:02:49;;;;;;;14.32;8.80;;;9.90;99.90;;;;;;20997673;28;20051;-54
2021/09/06 05:12:52;;;;;;;14.48;9.43;;;9.90;99.90;;;;;;20995752;28;20037;-52
2021/09/06 05:22:56;;;;;;;12.13;7.75;;;10.00;99.90;;;;;;20997356;28;20040;-56
2021/09/06 05:32:58;;;;;;;12.52;7.97;;;10.20;99.90;;;;;;20996023;28;20036;-55
2021/09/06 05:43:03;;;;;;;10.98;7.13;;;10.40;99.90;;;;;;20994887;28;20119;-55
2021/09/06 05:53:06;;;;;;;10.52;6.95;;;10.50;99.90;;;;;;20994206;28;20032;-51
2021/09/06 06:03:09;;;;;;;11.43;6.45;;;10.70;99.90;;;;;;20994097;28;20118;-53
2021/09/06 06:13:10;;;;;;;10.15;6.47;;;10.90;99.90;;;;;;20992549;28;20039;-55
2021/09/06 06:23:14;;;;;;;7.90;5.40;;;11.10;99.90;;;;;;20990023;28;20084;-56
2021/09/06 06:33:29;;;;;;;8.32;4.82;;;11.30;99.90;;;;;;20992960;28;20043;-51
2021/09/06 06:43:33;;;;;;;7.80;4.50;;;11.60;99.90;;;;;;20988663;28;20082;-55
2021/09/06 06:53:36;;;;;;;7.32;4.60;;;12.70;99.90;;;;;;20988748;28;20036;-55
2021/09/06 07:03:40;;;;;;;7.45;4.57;;;13.90;99.90;;;;;;20987225;28;20041;-53
2021/09/06 07:13:44;;;;;;;7.82;4.78;;;14.70;99.90;;;;;;20987242;28;20029;-54
2021/09/06 07:23:47;;;;;;;5.65;4.13;;;15.60;99.90;;;;;;20986619;28;20058;-55
2021/09/06 07:33:49;;;;;;;9.40;4.35;;;17.10;99.90;;;;;;20985600;28;20044;-57
2021/09/06 07:43:51;;;;;;;5.93;3.90;;;18.60;99.90;;;;;;20985052;28;20056;-56
2021/09/06 07:53:54;;;;;;;5.45;3.72;;;19.50;99.90;;;;;;20986099;28;20029;-54
2021/09/06 08:03:57;;;;;;;4.03;3.13;;;20.60;99.40;;;;;;20984598;28;20490;-54
2021/09/06 08:13:59;;;;;;;4.93;3.10;;;21.20;97.60;;;;;;20984406;28;20028;-53
2021/09/06 08:24:02;;;;;;;4.72;3.20;;;21.60;98.00;;;;;;20985700;28;20056;-55
2021/09/06 08:34:04;;;;;;;4.43;3.47;;;21.90;96.00;;;;;;20983527;28;20033;-55
2021/09/06 08:44:10;;;;;;;5.00;3.55;;;21.20;96.70;;;;;;20990920;28;20045;-55
2021/09/06 08:54:12;;;;;;;4.38;3.25;;;20.50;96.60;;;;;;20998222;28;20430;-57
2021/09/06 09:04:22;;;;;;;4.38;3.15;;;20.10;96.40;;;;;;20997265;28;20040;-58
2021/09/06 09:14:50;;;;;;;4.70;3.47;;;19.70;97.60;;;;;;20997391;28;20094;-58
2021/09/06 09:25:04;;;;;;;5.05;3.60;;;19.80;99.00;;;;;;20995100;28;20085;-56
2021/09/06 09:35:43;;;;;;;4.43;3.40;;;20.00;97.40;;;;;;20996147;28;20060;-54
2021/09/06 09:45:46;;;;;;;5.50;3.33;;;19.90;97.50;;;;;;20995721;28;20138;-56
2021/09/06 09:56:08;;;;;;;3.58;2.72;;;20.20;96.70;;;;;;20994055;28;20040;-58
2021/09/06 10:06:11;;;;;;;4.22;3.03;;;20.10;96.50;;;;;;20993687;28;20037;-54
2021/09/06 10:16:28;;;;;;;7.60;3.67;;;20.10;97.00;;;;;;20992939;28;20540;-57
2021/09/06 10:26:34;;;;;;;5.97;2.90;;;20.40;95.00;;;;;;20992164;28;20033;-57
2021/09/06 10:36:36;;;;;;;6.68;3.95;;;21.00;92.90;;;;;;20990850;28;20049;-57
2021/09/06 10:46:40;;;;;;;4.03;3.28;;;21.50;92.80;;;;;;20989839;28;20036;-58
2021/09/06 10:56:42;;;;;;;6.50;3.20;;;21.90;92.80;;;;;;20989690;28;20478;-56
2021/09/06 11:06:45;;;;;;;5.15;3.53;;;22.70;92.80;;;;;;20987842;28;20050;-55
2021/09/06 11:16:47;;;;;;;4.80;2.97;;;23.80;91.20;;;;;;21002948;28;20229;-57
2021/09/06 11:26:49;;;;;;;4.50;2.92;;;23.00;87.40;;;;;;20987042;28;20109;-56
2021/09/06 11:36:55;;;;;;;5.72;3.38;;;22.20;88.90;;;;;;20986801;28;20086;-58
2021/09/06 11:46:57;;;;;;;6.97;3.40;;;22.40;88.50;;;;;;20986938;28;20036;-58
2021/09/06 11:56:59;;;;;;;5.88;3.13;;;22.80;87.40;;;;;;20986221;28;20634;-57
2021/09/06 12:07:11;;;;;;;5.13;2.83;;;22.30;88.70;;;;;;20985710;28;20040;-53
2021/09/06 12:17:14;;;;;;;4.13;3.10;;;22.90;89.30;;;;;;20991841;28;20044;-57
2021/09/06 12:27:18;;;;;;;4.72;3.28;;;23.90;85.20;;;;;;21001215;28;20032;-54
2021/09/06 12:37:22;;;;;;;5.95;3.53;;;23.90;84.30;;;;;;20999393;28;20563;-57
2021/09/06 12:47:25;;;;;;;6.38;4.05;;;22.70;84.30;;;;;;20999792;28;20150;-58
2021/09/06 12:57:27;;;;;;;6.07;3.75;;;22.20;90.10;;;;;;20998651;28;20390;-57
2021/09/06 13:07:29;;;;;;;4.45;3.47;;;22.80;90.80;;;;;;20998797;28;20036;-55
2021/09/06 13:17:31;;;;;;;4.45;3.63;;;23.60;86.60;;;;;;20998407;28;20028;-56
2021/09/06 13:27:33;;;;;;;5.78;3.63;;;24.00;83.40;;;;;;20978132;28;20090;-57
2021/09/06 13:37:36;;;;;;;4.28;3.45;;;24.40;82.80;;;;;;20995304;28;20056;-58
2021/09/06 13:47:38;;;;;;;7.28;3.90;;;24.60;82.30;;;;;;20993171;28;20048;-58
2021/09/06 13:57:41;;;;;;;5.97;3.75;;;24.80;78.70;;;;;;20993839;28;20029;-57
2021/09/06 14:07:43;;;;;;;5.30;3.63;;;24.10;81.20;;;;;;20995222;28;20475;-55
2021/09/06 14:17:46;;;;;;;4.88;3.22;;;23.20;82.60;;;;;;20993366;28;20059;-58
2021/09/06 14:27:49;;;;;;;4.25;3.30;;;22.40;84.40;;;;;;20992569;28;20032;-57
2021/09/06 14:37:51;;;;;;;4.60;3.63;;;22.50;83.10;;;;;;20991253;28;20086;-57
2021/09/06 14:47:53;;;;;;;7.75;3.58;;;21.70;86.70;;;;;;20991641;28;20554;-53
2021/09/06 14:57:56;;;;;;;5.70;3.45;;;21.90;84.60;;;;;;20993555;28;20040;-58
2021/09/06 15:07:58;;;;;;;4.80;3.30;;;21.80;82.60;;;;;;20992865;28;20024;-59
2021/09/06 15:18:00;;;;;;;5.80;3.45;;;20.70;87.40;;;;;;20993026;28;20058;-58
2021/09/06 15:28:02;;;;;;;4.05;3.20;;;20.20;87.50;;;;;;20989215;28;20450;-55
2021/09/06 15:38:05;;;;;;;7.18;3.10;;;19.70;88.50;;;;;;20992004;28;20056;-56
2021/09/06 15:48:07;;;;;;;6.50;3.40;;;18.90;89.70;;;;;;20994985;28;20028;-57
2021/09/06 15:58:09;;;;;;;5.03;4.07;;;18.50;91.20;;;;;;21020062;28;20029;-56
2021/09/06 16:08:11;;;;;;;5.25;3.83;;;18.40;91.50;;;;;;21022935;28;20069;-58
2021/09/06 16:18:13;;;;;;;6.55;3.78;;;17.70;92.20;;;;;;21026181;28;20374;-57
2021/09/06 16:28:16;;;;;;;6.22;4.28;;;16.90;94.10;;;;;;21020591;28;20040;-58
2021/09/06 16:38:18;;;;;;;6.97;4.20;;;16.10;95.90;;;;;;20994292;28;20045;-56
2021/09/06 16:48:20;;;;;;;6.57;4.53;;;15.50;98.50;;;;;;20987466;28;20036;-53
2021/09/06 16:58:22;;;;;;;7.80;4.13;;;15.10;98.10;;;;;;21034875;28;20101;-60
2021/09/06 17:08:24;;;;;;;6.38;4.18;;;14.70;99.80;;;;;;21019738;28;20120;-57
2021/09/06 17:18:26;;;;;;;8.48;5.13;;;14.30;99.90;;;;;;21026484;28;20028;-59
2021/09/06 17:28:28;;;;;;;7.05;4.22;;;13.90;99.90;;;;;;21021554;28;20028;-57
2021/09/06 17:38:30;;;;;;;6.82;4.60;;;13.70;99.90;;;;;;21022431;28;20066;-58
2021/09/06 17:48:35;;;;;;;8.23;4.82;;;13.40;99.90;;;;;;21020117;28;20536;-60
2021/09/06 17:58:36;;;;;;;8.20;5.68;;;13.20;99.90;;;;;;21019790;28;20441;-60
2021/09/06 18:08:39;;;;;;;9.00;5.60;;;13.10;99.90;;;;;;21018923;28;20062;-57
2021/09/06 18:18:41;;;;;;;6.68;5.05;;;12.90;99.90;;;;;;21026508;28;20044;-57
2021/09/06 18:28:44;;;;;;;11.00;6.10;;;12.80;99.90;;;;;;21028255;28;20142;-59
2021/09/06 18:38:46;;;;;;;8.68;4.40;;;12.70;99.90;;;;;;21025627;28;20045;-57
2021/09/06 18:48:48;;;;;;;8.13;5.10;;;12.70;99.90;;;;;;21018474;28;20032;-58
2021/09/06 18:58:51;;;;;;;8.10;4.97;;;12.60;99.90;;;;;;21003908;28;20523;-61
2021/09/06 19:08:53;;;;;;;9.98;5.57;;;12.40;99.90;;;;;;20991698;28;20028;-60
2021/09/06 19:18:55;;;;;;;8.82;5.47;;;11.90;99.90;;;;;;20988899;28;20335;-58
2021/09/06 19:29:00;;;;;;;8.43;5.38;;;11.80;99.90;;;;;;20988921;28;20043;-60
2021/09/06 19:39:03;;;;;;;8.50;5.07;;;11.60;99.90;;;;;;20989869;28;20051;-57
2021/09/06 19:49:05;;;;;;;8.00;4.57;;;11.50;99.90;;;;;;20991338;28;20029;-57
2021/09/06 19:59:09;;;;;;;8.73;5.68;;;11.30;99.90;;;;;;20988870;28;20029;-60
2021/09/06 20:09:11;;;;;;;7.70;5.03;;;11.30;99.90;;;;;;20986928;28;20028;-59
2021/09/06 20:19:13;;;;;;;10.60;5.82;;;11.30;99.90;;;;;;20992788;28;20029;-57
2021/09/06 20:29:15;;;;;;;11.80;5.30;;;11.10;99.90;;;;;;20992292;28;20078;-55
2021/09/06 20:39:18;;;;;;;8.52;5.65;;;11.10;99.90;;;;;;20995288;28;20041;-60
2021/09/06 20:49:20;;;;;;;9.02;5.70;;;11.10;99.90;;;;;;21001769;28;20070;-60
2021/09/06 20:59:22;;;;;;;11.15;5.60;;;11.30;99.90;;;;;;20999512;28;20028;-58
2021/09/06 21:09:24;;;;;;;11.10;5.00;;;11.10;99.90;;;;;;21003175;28;20037;-60
2021/09/06 21:19:26;;;;;;;9.85;5.70;;;10.90;99.90;;;;;;21004874;28;20024;-58
2021/09/06 21:29:28;;;;;;;9.40;5.60;;;11.00;99.90;;;;;;21005161;28;20044;-58
2021/09/06 21:39:30;;;;;;;12.02;6.65;;;11.20;99.90;;;;;;21001005;28;20098;-60
2021/09/06 21:49:32;;;;;;;7.80;5.20;;;11.40;99.90;;;;;;21003471;28;20115;-60
2021/09/06 21:59:36;;;;;;;13.00;6.93;;;11.70;99.90;;;;;;21003211;28;20051;-57
2021/09/06 22:09:38;;;;;;;8.05;5.80;;;11.70;99.90;;;;;;20995888;28;20032;-60
2021/09/06 22:19:40;;;;;;;9.38;6.65;;;11.60;99.90;;;;;;20993302;28;20032;-58
2021/09/06 22:29:42;;;;;;;7.95;4.93;;;11.10;99.90;;;;;;20993916;28;20383;-57
2021/09/06 22:39:45;;;;;;;9.48;6.43;;;11.20;99.90;;;;;;20995134;28;20040;-59
2021/09/06 22:49:46;;;;;;;8.38;5.18;;;10.90;99.90;;;;;;20993536;28;20498;-60
2021/09/06 22:59:48;;;;;;;7.97;4.88;;;10.60;99.90;;;;;;20994891;28;20036;-59
2021/09/06 23:09:50;;;;;;;9.98;6.22;;;10.60;99.90;;;;;;20994782;28;20066;-59
2021/09/06 23:19:54;;;;;;;7.88;5.85;;;10.80;99.90;;;;;;20994194;28;20059;-59
2021/09/06 23:29:56;;;;;;;9.45;4.50;;;11.20;99.90;;;;;;20997300;28;20506;-58
2021/09/06 23:39:58;;;;;;;6.82;4.22;;;11.60;99.90;;;;;;20995875;28;20114;-59
2021/09/06 23:50:01;;;;;;;8.10;4.75;;;11.70;99.90;;;;;;20995953;28;20059;-60
